createdAt,value
2018-12-18T00:04:39.198Z,11.13
2018-12-18T00:09:42.672Z,12.10
2018-12-18T00:14:45.762Z,10.80
2018-12-18T00:19:48.838Z,10.58
2018-12-18T00:24:51.925Z,12.53
2018-12-18T00:29:55.116Z,8.80
2018-12-18T00:34:58.408Z,8.93
2018-12-18T00:40:01.485Z,10.17
2018-12-18T00:45:05.575Z,10.90
2018-12-18T00:50:08.775Z,11.00
2018-12-18T00:55:11.928Z,12.25
2018-12-18T01:00:15.083Z,12.80
2018-12-18T01:05:18.300Z,11.07
2018-12-18T01:10:21.707Z,10.43
2018-12-18T01:15:25.018Z,9.23
2018-12-18T01:20:28.110Z,10.50
2018-12-18T01:25:31.195Z,8.80
2018-12-18T01:30:34.304Z,11.37
2018-12-18T01:35:37.400Z,9.93
2018-12-18T01:40:40.520Z,10.03
2018-12-18T01:45:43.599Z,7.57
2018-12-18T01:50:46.684Z,10.97
2018-12-18T01:55:49.781Z,8.63
2018-12-18T02:00:52.848Z,8.80
2018-12-18T02:05:55.965Z,8.03
2018-12-18T02:10:59.120Z,9.33
2018-12-18T02:16:02.304Z,9.57
2018-12-18T02:21:05.458Z,8.70
2018-12-18T02:26:08.529Z,10.37
2018-12-18T02:31:11.874Z,9.03
2018-12-18T02:36:14.955Z,8.70
2018-12-18T02:41:18.137Z,10.75
2018-12-18T02:46:21.224Z,8.30
2018-12-18T02:56:50.580Z,6.73
2018-12-18T03:01:53.723Z,6.15
2018-12-18T03:06:56.846Z,10.83
2018-12-18T03:11:59.976Z,7.47
2018-12-18T03:17:03.105Z,7.17
2018-12-18T03:22:06.194Z,10.13
2018-12-18T03:27:09.256Z,6.73
2018-12-18T03:32:13.371Z,7.67
2018-12-18T03:37:16.441Z,8.43
2018-12-18T03:42:19.626Z,13.27
2018-12-18T03:47:22.780Z,10.40
2018-12-18T03:52:25.843Z,9.20
2018-12-18T03:57:28.935Z,7.97
2018-12-18T04:02:32.030Z,11.57
2018-12-18T04:07:36.421Z,14.70
2018-12-18T04:12:39.593Z,16.83
2018-12-18T04:17:42.769Z,22.23
2018-12-18T04:22:45.850Z,15.67
2018-12-18T04:27:48.929Z,16.90
2018-12-18T04:32:52.040Z,14.50
2018-12-18T04:37:55.118Z,14.23
2018-12-18T04:42:58.261Z,11.03
2018-12-18T04:48:07.228Z,12.13
2018-12-18T04:53:10.297Z,12.03
2018-12-18T04:58:13.343Z,9.30
2018-12-18T05:03:16.399Z,12.70
2018-12-18T05:08:19.473Z,10.93
2018-12-18T05:13:22.616Z,15.10
2018-12-18T05:18:25.678Z,12.20
2018-12-18T05:23:28.768Z,9.83
2018-12-18T05:28:31.908Z,12.07
2018-12-18T05:33:34.999Z,10.10
2018-12-18T05:38:38.148Z,8.73
2018-12-18T05:43:41.245Z,13.90
2018-12-18T05:48:44.304Z,14.20
2018-12-18T05:53:47.364Z,11.70
2018-12-18T05:58:50.442Z,14.67
2018-12-18T06:03:53.562Z,16.17
2018-12-18T06:08:56.625Z,17.03
2018-12-18T06:13:59.689Z,15.90
2018-12-18T06:19:02.774Z,14.33
2018-12-18T06:24:06.757Z,18.73
2018-12-18T06:29:09.908Z,18.57
2018-12-18T06:34:12.965Z,13.97
2018-12-18T06:39:16.117Z,15.17
2018-12-18T06:44:19.176Z,19.40
2018-12-18T06:49:22.318Z,16.50
2018-12-18T06:54:25.373Z,21.27
2018-12-18T06:59:28.533Z,22.17
2018-12-18T07:04:31.589Z,14.63
2018-12-18T07:09:34.740Z,13.20
2018-12-18T07:14:37.792Z,14.83
2018-12-18T07:19:40.870Z,16.17
2018-12-18T07:24:43.917Z,14.77
2018-12-18T07:29:46.980Z,12.70
2018-12-18T07:34:50.038Z,16.33
2018-12-18T07:39:53.097Z,16.37
2018-12-18T07:44:56.161Z,10.40
2018-12-18T07:49:59.224Z,16.37
2018-12-18T07:55:02.311Z,10.63
2018-12-18T08:00:06.593Z,17.90
2018-12-18T08:05:09.721Z,15.27
2018-12-18T08:10:12.814Z,12.23
2018-12-18T08:15:15.906Z,11.43
2018-12-18T08:20:19.003Z,10.27
2018-12-18T08:25:22.164Z,12.40
2018-12-18T08:30:25.269Z,11.23
2018-12-18T08:35:28.326Z,8.80
2018-12-18T08:40:31.385Z,12.63
2018-12-18T08:45:34.501Z,11.13
2018-12-18T08:50:37.568Z,11.78
2018-12-18T08:55:40.633Z,12.37
2018-12-18T09:00:43.693Z,12.37
2018-12-18T09:05:46.781Z,9.60
2018-12-18T09:10:49.879Z,12.63
2018-12-18T09:15:55.775Z,9.57
2018-12-18T09:20:58.864Z,8.40
2018-12-18T09:26:01.988Z,10.80
2018-12-18T09:31:05.100Z,10.23
2018-12-18T09:36:08.265Z,10.13
2018-12-18T09:41:16.996Z,6.73
2018-12-18T09:46:20.094Z,5.90
2018-12-18T09:51:23.149Z,4.53
2018-12-18T09:56:26.240Z,7.30
2018-12-18T10:01:29.293Z,5.77
2018-12-18T10:06:32.383Z,6.33
2018-12-18T10:11:35.508Z,6.72
2018-12-18T10:16:38.560Z,5.37
2018-12-18T10:21:41.673Z,6.23
2018-12-18T10:26:44.762Z,7.87
2018-12-18T10:31:47.841Z,5.90
2018-12-18T10:36:50.958Z,7.23
2018-12-18T10:41:54.084Z,6.63
2018-12-18T10:46:57.164Z,7.57
2018-12-18T10:52:00.245Z,6.13
2018-12-18T10:57:03.344Z,7.00
2018-12-18T11:02:06.467Z,6.30
2018-12-18T11:07:09.573Z,6.60
2018-12-18T11:12:12.653Z,5.83
2018-12-18T11:17:15.696Z,6.17
2018-12-18T11:22:18.801Z,6.53
2018-12-18T11:27:21.956Z,10.27
2018-12-18T11:32:24.994Z,9.17
2018-12-18T11:37:28.068Z,6.87
2018-12-18T11:42:31.118Z,8.80
2018-12-18T11:47:35.442Z,7.13
2018-12-18T11:52:38.494Z,5.65
2018-12-18T11:57:41.596Z,10.03
2018-12-18T12:02:44.742Z,6.63
2018-12-18T12:07:47.836Z,6.10
2018-12-18T12:12:50.920Z,6.87
2018-12-18T12:17:54.312Z,7.53
2018-12-18T12:22:57.475Z,8.33
2018-12-18T12:28:05.694Z,6.43
2018-12-18T12:33:08.752Z,8.33
2018-12-18T12:38:11.816Z,8.97
2018-12-18T12:43:14.901Z,7.10
2018-12-18T12:48:18.580Z,7.20
2018-12-18T12:53:21.641Z,7.42
2018-12-18T12:58:24.700Z,5.80
2018-12-18T13:03:27.866Z,10.93
2018-12-18T13:08:30.951Z,5.00
2018-12-18T13:13:34.005Z,5.47
2018-12-18T13:18:37.093Z,6.33
2018-12-18T13:23:40.166Z,5.50
2018-12-18T13:28:43.850Z,5.80
2018-12-18T13:33:46.923Z,8.47
2018-12-18T13:38:50.039Z,8.07
2018-12-18T13:43:53.921Z,4.20
2018-12-18T13:48:57.004Z,4.40
2018-12-18T13:54:00.412Z,6.87
2018-12-18T13:59:03.882Z,6.37
2018-12-18T14:04:06.959Z,7.63
2018-12-18T14:09:10.109Z,6.50
2018-12-18T14:14:13.189Z,7.17
2018-12-18T14:19:16.271Z,7.37
2018-12-18T14:24:19.392Z,11.37
2018-12-18T14:29:22.462Z,6.70
2018-12-18T14:34:25.587Z,5.77
2018-12-18T14:39:28.797Z,5.63
2018-12-18T14:44:31.882Z,6.27
2018-12-18T14:49:34.953Z,5.37
2018-12-18T14:54:38.241Z,2.90
2018-12-18T14:59:43.609Z,4.67
2018-12-18T15:04:46.779Z,5.43
2018-12-18T15:09:49.865Z,5.87
2018-12-18T15:14:52.941Z,5.20
2018-12-18T15:19:56.022Z,4.53
2018-12-18T15:24:59.136Z,6.23
2018-12-18T15:30:02.238Z,8.43
2018-12-18T15:35:05.415Z,4.97
2018-12-18T15:40:08.569Z,5.87
2018-12-18T15:45:11.675Z,4.90
2018-12-18T15:50:14.763Z,6.77
2018-12-18T15:55:17.899Z,6.20
2018-12-18T16:00:21.031Z,5.07
2018-12-18T16:05:24.113Z,6.20
2018-12-18T16:10:27.222Z,7.00
2018-12-18T16:15:30.345Z,9.18
2018-12-18T16:20:33.453Z,5.03
2018-12-18T16:25:36.535Z,7.57
2018-12-18T16:30:39.693Z,6.43
2018-12-18T16:35:46.104Z,8.30
2018-12-18T16:40:47.866Z,4.92
2018-12-18T16:45:50.920Z,11.30
2018-12-18T16:50:53.981Z,7.43
2018-12-18T16:55:57.047Z,5.10
2018-12-18T17:06:09.578Z,5.40
2018-12-18T17:11:12.758Z,8.53
2018-12-18T17:16:15.805Z,8.03
2018-12-18T17:21:18.853Z,7.60
2018-12-18T17:26:21.957Z,8.73
2018-12-18T17:31:25.033Z,9.47
2018-12-18T17:36:28.151Z,11.97
2018-12-18T17:41:31.232Z,15.97
2018-12-18T17:46:34.365Z,11.80
2018-12-18T17:51:37.453Z,11.90
2018-12-18T17:56:40.561Z,12.60
2018-12-18T18:01:43.625Z,12.00
2018-12-18T18:06:46.723Z,13.33
2018-12-18T18:11:49.771Z,12.50
2018-12-18T18:16:52.853Z,14.73
2018-12-18T18:21:55.908Z,12.60
2018-12-18T18:26:58.962Z,13.97
2018-12-18T18:32:02.062Z,16.27
2018-12-18T18:37:05.204Z,12.40
2018-12-18T18:42:08.262Z,15.63
2018-12-18T18:47:11.369Z,14.37
2018-12-18T18:52:14.540Z,13.73
2018-12-18T18:57:19.031Z,16.60
2018-12-18T19:02:22.252Z,14.20
2018-12-18T19:07:25.318Z,15.73
2018-12-18T19:12:28.382Z,14.27
2018-12-18T19:17:31.472Z,12.53
2018-12-18T19:22:34.639Z,13.17
2018-12-18T19:27:37.709Z,11.00
2018-12-18T19:32:40.782Z,11.77
2018-12-18T19:37:43.933Z,13.20
2018-12-18T19:42:47.014Z,10.13
2018-12-18T19:47:50.069Z,9.90
2018-12-18T19:52:53.124Z,12.73
2018-12-18T19:57:56.183Z,11.03
2018-12-18T20:02:59.321Z,11.10
2018-12-18T20:08:02.399Z,9.50
2018-12-18T20:13:05.452Z,9.23
2018-12-18T20:18:08.546Z,10.33
2018-12-18T20:23:11.599Z,9.03
2018-12-18T20:28:14.654Z,8.93
2018-12-18T20:33:17.733Z,8.90
2018-12-18T20:38:20.789Z,9.07
2018-12-18T20:43:24.490Z,9.70
2018-12-18T20:48:27.543Z,8.97
2018-12-18T20:53:30.678Z,8.47
2018-12-18T20:58:33.804Z,7.80
2018-12-18T21:03:36.855Z,6.90
2018-12-18T21:08:39.907Z,8.25
2018-12-18T21:13:42.967Z,8.05
2018-12-18T21:18:46.015Z,6.03
2018-12-18T21:23:49.889Z,6.77
2018-12-18T21:28:52.941Z,7.53
2018-12-18T21:33:55.990Z,6.42
2018-12-18T21:38:59.038Z,6.83
2018-12-18T21:44:02.166Z,6.73
2018-12-18T21:49:05.267Z,9.57
2018-12-18T21:54:08.357Z,6.80
2018-12-18T21:59:11.402Z,8.47
2018-12-18T22:04:16.433Z,6.30
2018-12-18T22:09:19.504Z,7.90
2018-12-18T22:14:24.850Z,6.17
2018-12-18T22:19:27.877Z,6.97
2018-12-18T22:24:30.931Z,8.60
2018-12-18T22:29:34.053Z,7.00
2018-12-18T22:34:37.118Z,7.63
2018-12-18T22:39:40.170Z,8.47
2018-12-18T22:44:43.221Z,7.63
2018-12-18T22:49:46.275Z,7.33
2018-12-18T22:54:49.341Z,7.20
2018-12-18T22:59:52.402Z,6.57
2018-12-18T23:04:55.573Z,7.67
2018-12-18T23:09:58.621Z,5.67
2018-12-18T23:15:01.700Z,5.70
2018-12-18T23:20:06.312Z,7.37
2018-12-18T23:25:09.393Z,6.10
2018-12-18T23:30:12.547Z,5.47
2018-12-18T23:35:15.602Z,5.60
2018-12-18T23:40:18.725Z,8.00
2018-12-18T23:45:22.621Z,5.67
2018-12-18T23:50:25.706Z,5.60
2018-12-18T23:55:28.749Z,6.37
